Oklahoma City, OK

11:18 AM CST on February 08, 2016 (GMT -0600)
Newalla OK - SE 134th & Choctaw Road | | Change Station
CLOSE
Current Station
Personal Weather Station
Location: Newalla, OK
Elevation: 1128 ft
Nearby Weather Stations
Active Advisory: Wind Advisory

Elev 1128 ft 35.34 °N, 97.27 °W | Updated 9 minutes ago

Clear
Clear
45.8 °F
Feels Like 40 °F
N
12.0
Wind Variable Wind from North
Gusts 24.0 mph

Today
High -- | Low -- °F
--% Chance of Precip.
Yesterday
High -- | Low -- °F
Precip. -- in
Pressure 30.32 in
Visibility 10.0 miles
Clouds Clear
Windchill 40 °F
Dew Point 16 °F
Humidity 30%
Rainfall 0.00 in
Snow Depth Not available.
7:22 AM 6:04 PM
New Moon, 0% visible
METAR KTIK 081558Z AUTO 33022G28KT 10SM CLR 05/M10 A3028 RMK AO2 PK WND 33033/09 SLP266 T00461098 $
Pressure 30.32 in
Visibility 10.0 miles
Clouds Clear
Windchill 40 °F
Dew Point 16 °F
Humidity 30%
Rainfall 0.00 in
Snow Depth Not available.
7:22 AM 6:04 PM
New Moon, 0% visible
METAR KTIK 081558Z AUTO 33022G28KT 10SM CLR 05/M10 A3028 RMK AO2 PK WND 33033/09 SLP266 T00461098 $

10-Day Weather Forecast

Almanac

Astronomy

Feb. 08, 2016 Rise Set
Actual Time
Civil Twilight
Nautical Twilight
Astronomical Twilight
Moon
Length of Visible Light
Length of Day
Tomorrow will be .
, % of the Moon is Illuminated

Today's Extremes

State Highs State Lows

Community

WunderPhotos

Upload Photos

1,891,471 photos uploaded!

WunderBlog® & News

Nearby

Air Quality

  Air Quality AQ Index Pollutant
Not available.

Snow Depth

Station Depth Elevation

Earthquake Activity

City Distance Mag. Time & Date
Minimum magnitude displayed is 2.5.

Coastal Water Temperatures

Place Temperature

Stations

Nearby Weather Stations

Station Location Temp. Windchill Dew Point Humidity Wind Precip. Elev Updated Type
                   

Watches & Warnings

Wind Advisory
Issued: 2:57 AM CST Feb. 8, 2016 – National Weather Service

... Wind Advisory in effect from 10 am this morning to 6 PM CST
this evening...

* timing... late this morning through early this evening.

* Winds... north 30 to 35 mph with gusts near 40 to 50 mph.

* Impacts... driving may become difficult at times especially on
west and east roadways. Residents should ensure lightweight
outdoor objects are secured.

Precautionary/preparedness actions...

Be careful if you have to travel or if you are working or playing
outside.